Morganza, MD (20660)

12:51 AM EST die 24o February, anno 2018 (GMT -0500)
MD0282 | | Change Station

Elev 150 ft 38.40 °N, 76.66 °W | Updated 13 minutes ago

Caligo
Caligo
49.0 °F
Feels Like 49 °F
N
0.0
Ventus Variabilis Ventus from Inter Austrum et Zephyrum
Gusts 4.0 mph

Hodie
High -- | Low -- °F
--% Chance of Precip.
Yesterday
High -- | Low -- °F
Precip. -- in
Pressio 30.26 in
Visibilitas 2.0 milia passuum
Clouds Aequaliter Nubila 200 ft
Frigus Venti 49 °F
Frigus in quo Ros apparet 48 °F
Umor 98%
Rainfall 0.00 in
Snow Depth Not available.
6:45 AM 5:54 PM
First Quarter, 60% visible
METAR K2W6 240537Z AUTO 21007KT 2SM OVC002 09/09 A3026 RMK AO1
Pressio 30.26 in
Visibilitas 2.0 milia passuum
Clouds Aequaliter Nubila 200 ft
Frigus Venti 49 °F
Frigus in quo Ros apparet 48 °F
Umor 98%
Rainfall 0.00 in
Snow Depth Not available.
6:45 AM 5:54 PM
First Quarter, 60% visible
METAR K2W6 240537Z AUTO 21007KT 2SM OVC002 09/09 A3026 RMK AO1

Get Severe Weather Alerts

Thanks for signing up!

Be on the lookout for a verification email in your inbox.

You'll start receiving the daily forecast at 6 AM.

×

10-Day Weather Forecast

Almanac

Astronomy

Feb. 24, 2018 Rise Set
Actual Time
Civil Twilight
Nautical Twilight
Astronomical Twilight
Moon
Length Of Visible Light
Length of Day
Tomorrow will be .
, % of the Moon is Illuminated

Today's Extremes

State Highs State Lows

Community

WunderPhotos

Category 6

Welcome to Category 6. This is the collective home for Weather Underground's featured writeups by Dr. Jeff Masters (right), Bob Henson (left), Chris Burt, and other regular contributors.

Nearby

Air Quality

  Air Quality AQ Index Pollutant
Not available.

Snow Depth

Station Depth Elevation

Earthquake Activity

City Distance Mag. Time & Date
Minimum magnitude displayed is 2.5.

Coastal Water Temperatures

Locus Calor

Stations

Nearby Weather Stations

Station Location Temp Frigus Venti Frigus in quo Ros apparet Umor Ventus Precip. Elev Renovata Type
                   

Watches & Warnings

There are currently no watches in effect.